Time;durP1;ratioP1;P1;durP2;ratioP2;P2;SDS_P1;SDS_P2;PMS_P1;PMS_P2;Temp;Humidity;BMP_temperature;BMP_pressure;BME280_temperature;BME280_humidity;BME280_pressure;Samples;Min_cycle;Max_cycle;Signal;HPM_P1;HPM_P2
2023/03/07 00:02:20;;;;;;;7.70;5.32;;;;;;;;;;10063149;28;20038;-67
2023/03/07 00:07:13;;;;;;;11.90;5.70;;;;;;;;;;10061049;28;20152;-67
2023/03/07 00:12:08;;;;;;;8.63;5.75;;;;;;;;;;10059540;28;20059;-67
2023/03/07 00:17:01;;;;;;;8.30;6.40;;;;;;;;;;10059917;28;20068;-67
2023/03/07 00:21:55;;;;;;;11.30;6.45;;;;;;;;;;10050082;28;20049;-67
2023/03/07 00:26:49;;;;;;;8.20;5.95;;;;;;;;;;10063894;28;20500;-67
2023/03/07 00:31:43;;;;;;;7.68;5.05;;;;;;;;;;10069012;28;20485;-67
2023/03/07 00:36:36;;;;;;;10.35;6.25;;;;;;;;;;10069153;28;20045;-67
2023/03/07 00:41:30;;;;;;;10.20;6.65;;;;;;;;;;10067178;28;20067;-67
2023/03/07 00:46:24;;;;;;;7.18;5.38;;;;;;;;;;10068744;28;20065;-67
2023/03/07 00:51:18;;;;;;;7.78;5.80;;;;;;;;;;10066159;28;20115;-67
2023/03/07 00:56:14;;;;;;;6.35;4.90;;;;;;;;;;10066848;28;20053;-67
2023/03/07 01:01:11;;;;;;;8.07;5.03;;;;;;;;;;10064087;28;20055;-67
2023/03/07 01:06:07;;;;;;;6.70;5.72;;;;;;;;;;10068285;28;20479;-67
2023/03/07 01:11:01;;;;;;;8.70;5.38;;;;;;;;;;10066426;28;20053;-66
2023/03/07 01:15:55;;;;;;;14.15;5.82;;;;;;;;;;10065417;28;20095;-66
2023/03/07 01:20:48;;;;;;;12.02;5.68;;;;;;;;;;10067839;28;20038;-66
2023/03/07 01:25:41;;;;;;;6.97;4.63;;;;;;;;;;10066187;28;20084;-67
2023/03/07 01:30:35;;;;;;;8.07;5.75;;;;;;;;;;10065543;28;20463;-67
2023/03/07 01:35:28;;;;;;;7.50;5.82;;;;;;;;;;10065446;28;20045;-67
2023/03/07 01:40:23;;;;;;;8.95;6.57;;;;;;;;;;10065494;28;20052;-67
2023/03/07 01:45:32;;;;;;;9.00;5.80;;;;;;;;;;10065269;28;20069;-67
2023/03/07 01:50:26;;;;;;;8.20;5.30;;;;;;;;;;10064426;28;20061;-67
2023/03/07 01:55:23;;;;;;;8.75;6.07;;;;;;;;;;10065360;28;20424;-67
2023/03/07 02:00:28;;;;;;;8.43;4.85;;;;;;;;;;10064919;28;20554;-67
2023/03/07 02:05:25;;;;;;;8.60;5.10;;;;;;;;;;10075488;28;20048;-67
2023/03/07 02:10:20;;;;;;;12.05;5.88;;;;;;;;;;10047779;28;20051;-65
2023/03/07 02:15:15;;;;;;;14.00;6.25;;;;;;;;;;10042671;28;20096;-68
2023/03/07 02:20:35;;;;;;;12.32;5.75;;;;;;;;;;10065486;28;20056;-68
2023/03/07 02:25:34;;;;;;;16.23;10.68;;;;;;;;;;10065098;28;20045;-68
2023/03/07 02:30:28;;;;;;;15.73;10.30;;;;;;;;;;10047542;28;21162;-68
2023/03/07 02:35:24;;;;;;;14.93;10.95;;;;;;;;;;10065064;28;20128;-67
2023/03/07 02:40:23;;;;;;;21.25;11.70;;;;;;;;;;10063960;28;20049;-67
2023/03/07 02:45:17;;;;;;;21.23;12.00;;;;;;;;;;10063422;28;20057;-67
2023/03/07 02:50:11;;;;;;;16.25;9.15;;;;;;;;;;10058107;28;20111;-67
2023/03/07 02:55:09;;;;;;;13.23;9.73;;;;;;;;;;10062859;28;20045;-67
2023/03/07 03:00:09;;;;;;;11.53;9.63;;;;;;;;;;10063547;28;20149;-66
2023/03/07 03:05:03;;;;;;;14.60;9.90;;;;;;;;;;10063130;28;20402;-67
2023/03/07 03:09:57;;;;;;;15.82;10.93;;;;;;;;;;10064539;28;20045;-67
2023/03/07 03:14:49;;;;;;;21.45;12.93;;;;;;;;;;10063135;28;20064;-67
2023/03/07 03:19:42;;;;;;;18.85;12.30;;;;;;;;;;10069854;28;20054;-67
2023/03/07 03:24:39;;;;;;;19.65;13.48;;;;;;;;;;10070428;28;20053;-67
2023/03/07 03:29:34;;;;;;;27.02;14.63;;;;;;;;;;10070458;28;20091;-68
2023/03/07 03:34:29;;;;;;;25.13;13.70;;;;;;;;;;10070001;28;20136;-66
2023/03/07 03:39:22;;;;;;;25.05;15.15;;;;;;;;;;10071346;28;20064;-66
2023/03/07 03:44:21;;;;;;;26.80;16.17;;;;;;;;;;10069971;28;20498;-66
2023/03/07 03:49:15;;;;;;;27.30;18.02;;;;;;;;;;10068657;28;20057;-66
2023/03/07 03:54:12;;;;;;;21.58;16.42;;;;;;;;;;10068991;28;20042;-66
2023/03/07 03:59:06;;;;;;;25.65;18.33;;;;;;;;;;10069106;28;20272;-65
2023/03/07 04:04:00;;;;;;;25.55;17.65;;;;;;;;;;10069068;28;20137;-65
2023/03/07 04:08:53;;;;;;;36.40;18.13;;;;;;;;;;10069082;28;20057;-65
2023/03/07 04:13:47;;;;;;;26.55;16.48;;;;;;;;;;10068271;28;20492;-65
2023/03/07 04:18:41;;;;;;;26.73;18.23;;;;;;;;;;10068328;28;20397;-65
2023/03/07 04:23:35;;;;;;;21.85;14.02;;;;;;;;;;10060582;28;20041;-65
2023/03/07 04:28:47;;;;;;;21.52;11.05;;;;;;;;;;10067307;28;20072;-66
2023/03/07 04:33:52;;;;;;;16.80;10.45;;;;;;;;;;10061651;28;20049;-66
2023/03/07 04:38:47;;;;;;;19.65;11.85;;;;;;;;;;10071062;28;20033;-66
2023/03/07 04:43:40;;;;;;;11.70;8.60;;;;;;;;;;10078462;28;20099;-67
2023/03/07 04:48:34;;;;;;;20.55;9.98;;;;;;;;;;10067068;28;20054;-65
2023/03/07 04:53:28;;;;;;;21.83;8.68;;;;;;;;;;10058071;28;20095;-66
2023/03/07 04:58:22;;;;;;;10.65;7.28;;;;;;;;;;10092474;28;20489;-66
2023/03/07 05:03:15;;;;;;;15.95;8.35;;;;;;;;;;10061863;28;20056;-66
2023/03/07 05:08:09;;;;;;;17.13;9.00;;;;;;;;;;10060885;28;20132;-66
2023/03/07 05:13:03;;;;;;;15.82;9.35;;;;;;;;;;10064057;28;20058;-66
2023/03/07 05:17:56;;;;;;;20.92;11.93;;;;;;;;;;10062132;28;20045;-66
2023/03/07 05:22:50;;;;;;;19.40;11.82;;;;;;;;;;10057194;28;20049;-66
2023/03/07 05:27:44;;;;;;;16.20;12.02;;;;;;;;;;10062170;28;20058;-66
2023/03/07 05:32:37;;;;;;;14.13;9.73;;;;;;;;;;10059588;28;20566;-69
2023/03/07 05:37:31;;;;;;;13.55;10.63;;;;;;;;;;10060495;28;20131;-67
2023/03/07 05:42:24;;;;;;;16.23;10.35;;;;;;;;;;10061089;28;20050;-67
2023/03/07 05:47:18;;;;;;;14.98;10.05;;;;;;;;;;10061258;28;20072;-66
2023/03/07 05:52:11;;;;;;;16.92;10.88;;;;;;;;;;10063128;28;20049;-65
2023/03/07 05:57:05;;;;;;;13.30;10.25;;;;;;;;;;10062019;28;20136;-66
2023/03/07 06:01:59;;;;;;;19.17;9.07;;;;;;;;;;10061571;28;20061;-63
2023/03/07 06:06:53;;;;;;;18.38;9.63;;;;;;;;;;10056078;28;20123;-63
2023/03/07 06:11:46;;;;;;;19.23;11.52;;;;;;;;;;10089088;28;20077;-63
2023/03/07 06:16:39;;;;;;;23.17;12.00;;;;;;;;;;10057106;28;20416;-64
2023/03/07 06:21:34;;;;;;;19.00;13.38;;;;;;;;;;10051600;28;20042;-64
2023/03/07 06:26:27;;;;;;;26.10;11.32;;;;;;;;;;10053689;28;20045;-66
2023/03/07 06:31:20;;;;;;;27.58;12.13;;;;;;;;;;10051649;28;20056;-66
2023/03/07 06:36:15;;;;;;;28.17;16.02;;;;;;;;;;10052992;28;20053;-65
2023/03/07 06:41:12;;;;;;;23.70;13.30;;;;;;;;;;10063326;28;20057;-65
2023/03/07 06:46:07;;;;;;;28.92;15.82;;;;;;;;;;10063898;28;20064;-66
2023/03/07 06:51:09;;;;;;;31.77;15.60;;;;;;;;;;10063789;28;20053;-66
2023/03/07 06:56:05;;;;;;;26.83;13.43;;;;;;;;;;10070903;28;20480;-66
2023/03/07 07:01:00;;;;;;;19.95;10.43;;;;;;;;;;10071573;28;20107;-66
2023/03/07 07:05:55;;;;;;;18.25;11.35;;;;;;;;;;10066023;28;20482;-65
2023/03/07 07:10:48;;;;;;;37.65;15.52;;;;;;;;;;10071807;28;20568;-67
2023/03/07 07:15:43;;;;;;;29.00;13.02;;;;;;;;;;10068942;28;20506;-66
2023/03/07 07:20:37;;;;;;;24.27;13.82;;;;;;;;;;10069982;28;20065;-66
2023/03/07 07:25:30;;;;;;;21.35;12.80;;;;;;;;;;10070451;28;20045;-66
2023/03/07 07:30:23;;;;;;;17.83;9.98;;;;;;;;;;10071602;28;20544;-67
2023/03/07 07:35:17;;;;;;;13.25;10.65;;;;;;;;;;10069443;28;20088;-67
2023/03/07 07:40:14;;;;;;;19.83;9.68;;;;;;;;;;10068755;28;20467;-67
2023/03/07 07:45:11;;;;;;;41.13;13.40;;;;;;;;;;10068909;28;20140;-67
2023/03/07 07:50:04;;;;;;;24.27;12.05;;;;;;;;;;10068383;28;20053;-67
2023/03/07 07:54:59;;;;;;;12.73;8.52;;;;;;;;;;10068324;28;20084;-67
2023/03/07 07:59:53;;;;;;;13.57;8.02;;;;;;;;;;10073642;28;20140;-64
2023/03/07 08:04:46;;;;;;;13.82;7.55;;;;;;;;;;10067394;28;20493;-64
2023/03/07 08:09:39;;;;;;;13.82;9.10;;;;;;;;;;10066670;28;20050;-65
2023/03/07 08:14:34;;;;;;;14.60;7.68;;;;;;;;;;10069214;28;20073;-66
2023/03/07 08:19:27;;;;;;;11.82;7.22;;;;;;;;;;10069379;28;20041;-65
2023/03/07 08:24:20;;;;;;;14.63;6.95;;;;;;;;;;10066905;28;20135;-65
2023/03/07 08:29:31;;;;;;;13.80;7.68;;;;;;;;;;10063026;28;20137;-65
2023/03/07 08:34:25;;;;;;;14.85;8.45;;;;;;;;;;10068568;28;20497;-64
2023/03/07 08:39:19;;;;;;;12.05;6.85;;;;;;;;;;10068109;28;20049;-66
2023/03/07 08:44:12;;;;;;;8.40;6.72;;;;;;;;;;10068196;28;20179;-66
2023/03/07 08:49:05;;;;;;;18.05;5.53;;;;;;;;;;10068406;28;20489;-68
2023/03/07 08:53:58;;;;;;;10.32;5.85;;;;;;;;;;10067741;28;20041;-66
2023/03/07 08:58:52;;;;;;;10.65;4.88;;;;;;;;;;10067043;28;20412;-66
2023/03/07 09:03:45;;;;;;;11.27;4.10;;;;;;;;;;10066478;28;20400;-66
2023/03/07 09:08:38;;;;;;;8.80;5.22;;;;;;;;;;10064300;28;20054;-66
2023/03/07 09:13:32;;;;;;;8.30;4.25;;;;;;;;;;10063062;28;20123;-66
2023/03/07 09:18:42;;;;;;;13.70;4.07;;;;;;;;;;10056068;28;20440;-65
2023/03/07 09:23:35;;;;;;;7.82;4.55;;;;;;;;;;10052575;28;20037;-65
2023/03/07 09:28:28;;;;;;;7.78;4.35;;;;;;;;;;10064271;28;20034;-65
2023/03/07 09:33:21;;;;;;;8.75;4.20;;;;;;;;;;10063828;28;20041;-66
2023/03/07 09:38:15;;;;;;;7.97;4.00;;;;;;;;;;10064780;28;20041;-65
2023/03/07 09:43:10;;;;;;;14.63;5.20;;;;;;;;;;10066310;28;20049;-66
2023/03/07 09:48:22;;;;;;;7.25;4.85;;;;;;;;;;10058283;28;20432;-65
2023/03/07 09:53:36;;;;;;;9.32;6.38;;;;;;;;;;10065841;28;20049;-69
2023/03/07 09:58:32;;;;;;;9.57;4.13;;;;;;;;;;10065121;28;20133;-67
2023/03/07 10:03:32;;;;;;;11.85;4.18;;;;;;;;;;10063756;28;20053;-70
2023/03/07 10:08:32;;;;;;;7.68;4.13;;;;;;;;;;10066033;28;20069;-69
2023/03/07 10:13:43;;;;;;;7.15;3.95;;;;;;;;;;10064242;28;20132;-69
2023/03/07 10:18:57;;;;;;;12.43;4.93;;;;;;;;;;10065528;28;20115;-68
2023/03/07 10:24:23;;;;;;;7.40;4.50;;;;;;;;;;10064271;28;20041;-68
2023/03/07 10:29:18;;;;;;;9.90;4.75;;;;;;;;;;10062254;28;20057;-68
2023/03/07 10:34:30;;;;;;;10.07;3.87;;;;;;;;;;10063473;28;20092;-70
2023/03/07 10:39:34;;;;;;;11.88;4.90;;;;;;;;;;10062399;28;20041;-68
2023/03/07 10:44:31;;;;;;;7.95;3.83;;;;;;;;;;10063178;28;20480;-67
2023/03/07 10:49:35;;;;;;;9.68;3.70;;;;;;;;;;10063908;28;20061;-68
2023/03/07 10:54:34;;;;;;;10.98;4.53;;;;;;;;;;10062163;28;20452;-68
2023/03/07 10:59:26;;;;;;;6.20;3.85;;;;;;;;;;10062093;28;20037;-68
2023/03/07 11:04:23;;;;;;;6.20;3.13;;;;;;;;;;10064167;28;20141;-68
2023/03/07 11:09:22;;;;;;;6.67;2.77;;;;;;;;;;10064935;28;20069;-68
2023/03/07 11:14:15;;;;;;;6.72;3.13;;;;;;;;;;10057899;28;20041;-68
2023/03/07 11:19:32;;;;;;;13.55;3.47;;;;;;;;;;10062614;28;20405;-68
2023/03/07 11:24:47;;;;;;;8.15;3.10;;;;;;;;;;10064027;28;20049;-67
2023/03/07 11:29:41;;;;;;;10.82;3.42;;;;;;;;;;10064106;28;20107;-67
2023/03/07 11:34:46;;;;;;;14.38;3.40;;;;;;;;;;10063755;28;20077;-67
2023/03/07 11:40:07;;;;;;;8.10;3.08;;;;;;;;;;10068472;28;20454;-68
2023/03/07 11:45:07;;;;;;;10.57;3.35;;;;;;;;;;10069083;28;20144;-68
2023/03/07 11:50:19;;;;;;;3.83;2.20;;;;;;;;;;10068675;28;20049;-67
2023/03/07 11:55:37;;;;;;;7.28;2.53;;;;;;;;;;10065257;28;20107;-67
2023/03/07 12:00:51;;;;;;;12.23;3.50;;;;;;;;;;10066553;28;20092;-68
2023/03/07 12:06:13;;;;;;;9.23;2.55;;;;;;;;;;10067836;28;20049;-68
2023/03/07 12:11:21;;;;;;;7.82;3.22;;;;;;;;;;10070662;28;20163;-68
2023/03/07 12:16:29;;;;;;;4.53;2.47;;;;;;;;;;10070410;28;20049;-68
2023/03/07 12:21:37;;;;;;;4.13;2.33;;;;;;;;;;10070359;28;20136;-68
2023/03/07 12:26:57;;;;;;;8.18;2.60;;;;;;;;;;10065731;28;20099;-67
2023/03/07 12:31:53;;;;;;;4.40;2.45;;;;;;;;;;10069128;28;20099;-67
2023/03/07 12:36:49;;;;;;;7.05;2.60;;;;;;;;;;10064880;28;20519;-67
2023/03/07 12:42:05;;;;;;;4.90;2.78;;;;;;;;;;10068705;28;20057;-67
2023/03/07 12:47:06;;;;;;;4.55;2.50;;;;;;;;;;10065432;28;20148;-67
2023/03/07 12:52:01;;;;;;;9.50;3.90;;;;;;;;;;10065947;28;20049;-67
2023/03/07 12:57:00;;;;;;;8.23;3.80;;;;;;;;;;10066564;28;20147;-65
2023/03/07 13:02:02;;;;;;;6.88;2.90;;;;;;;;;;10068538;28;20459;-65
2023/03/07 13:07:09;;;;;;;10.50;3.58;;;;;;;;;;10067465;28;20049;-65
2023/03/07 13:12:29;;;;;;;8.18;3.53;;;;;;;;;;10057215;28;20459;-65
2023/03/07 13:17:30;;;;;;;6.00;3.00;;;;;;;;;;10066407;28;20128;-64
2023/03/07 13:22:23;;;;;;;4.05;2.90;;;;;;;;;;10065167;28;20100;-65
2023/03/07 13:27:26;;;;;;;5.50;3.00;;;;;;;;;;10066489;28;20041;-63
2023/03/07 13:32:47;;;;;;;11.43;4.18;;;;;;;;;;10067183;28;20583;-64
2023/03/07 13:38:21;;;;;;;6.78;3.75;;;;;;;;;;10068303;28;20087;-63
2023/03/07 13:43:18;;;;;;;7.05;3.65;;;;;;;;;;10060409;28;20084;-64
2023/03/07 13:48:24;;;;;;;6.80;3.78;;;;;;;;;;10065990;28;20132;-64
2023/03/07 13:53:36;;;;;;;7.03;3.63;;;;;;;;;;10062522;28;20053;-64
2023/03/07 13:58:33;;;;;;;8.73;3.08;;;;;;;;;;10064505;28;20072;-64
2023/03/07 14:03:38;;;;;;;9.13;4.55;;;;;;;;;;10066021;28;20061;-64
2023/03/07 14:08:33;;;;;;;6.85;4.00;;;;;;;;;;10067282;28;20042;-64
2023/03/07 14:13:41;;;;;;;5.25;2.95;;;;;;;;;;10064581;28;20049;-62
2023/03/07 14:18:45;;;;;;;6.10;3.38;;;;;;;;;;10065181;28;20045;-59
2023/03/07 14:24:02;;;;;;;7.22;3.38;;;;;;;;;;10063592;28;20050;-60
2023/03/07 14:29:00;;;;;;;5.03;3.55;;;;;;;;;;10056216;28;20045;-70
2023/03/07 14:33:53;;;;;;;7.57;3.60;;;;;;;;;;10063162;28;20485;-61
2023/03/07 14:38:47;;;;;;;5.88;4.13;;;;;;;;;;10063496;28;20519;-58
2023/03/07 14:43:47;;;;;;;5.68;3.30;;;;;;;;;;10058691;28;20041;-63
2023/03/07 14:49:14;;;;;;;4.00;2.90;;;;;;;;;;10058818;28;20516;-64
2023/03/07 14:54:14;;;;;;;6.50;3.60;;;;;;;;;;10064255;28;20046;-63
2023/03/07 14:59:07;;;;;;;8.45;3.50;;;;;;;;;;10074198;28;20049;-62
2023/03/07 15:04:24;;;;;;;4.95;3.40;;;;;;;;;;10062810;28;20459;-63
2023/03/07 15:09:17;;;;;;;5.82;3.03;;;;;;;;;;10065876;28;20496;-62
2023/03/07 15:14:14;;;;;;;5.32;3.20;;;;;;;;;;10074623;28;20052;-63
2023/03/07 15:19:19;;;;;;;5.95;3.72;;;;;;;;;;10066897;28;20428;-63
2023/03/07 15:24:21;;;;;;;6.15;2.90;;;;;;;;;;10067528;28;20140;-63
2023/03/07 15:29:15;;;;;;;5.25;3.30;;;;;;;;;;10069384;28;20047;-63
2023/03/07 15:34:29;;;;;;;4.78;3.40;;;;;;;;;;10074649;28;20062;-62
2023/03/07 15:39:33;;;;;;;5.88;3.63;;;;;;;;;;10077916;28;20484;-63
2023/03/07 15:44:27;;;;;;;7.70;3.58;;;;;;;;;;10070585;28;20063;-63
2023/03/07 15:49:41;;;;;;;8.23;3.58;;;;;;;;;;10073416;28;20524;-63
2023/03/07 15:54:38;;;;;;;7.72;3.35;;;;;;;;;;10071682;28;20055;-63
2023/03/07 15:59:34;;;;;;;5.50;3.45;;;;;;;;;;10087762;28;20033;-63
2023/03/07 16:04:36;;;;;;;7.03;2.95;;;;;;;;;;10065863;28;20045;-63
2023/03/07 16:09:29;;;;;;;5.75;3.00;;;;;;;;;;10056891;28;20045;-62
2023/03/07 16:14:43;;;;;;;7.65;3.22;;;;;;;;;;10070085;28;20038;-62
2023/03/07 16:19:36;;;;;;;2.85;2.22;;;;;;;;;;10068989;28;20096;-63
2023/03/07 16:24:31;;;;;;;3.03;2.20;;;;;;;;;;10069023;28;20408;-63
2023/03/07 16:29:24;;;;;;;2.78;2.13;;;;;;;;;;10067504;28;20057;-63
2023/03/07 16:34:19;;;;;;;2.50;2.05;;;;;;;;;;10068426;28;20166;-63
2023/03/07 16:39:14;;;;;;;1.88;1.63;;;;;;;;;;10068477;28;20115;-63
2023/03/07 16:44:07;;;;;;;2.28;1.80;;;;;;;;;;10067574;28;20476;-62
2023/03/07 16:49:01;;;;;;;8.30;2.40;;;;;;;;;;10066227;28;20061;-63
2023/03/07 16:53:55;;;;;;;3.70;1.75;;;;;;;;;;10067850;28;20068;-63
2023/03/07 16:58:49;;;;;;;6.15;2.13;;;;;;;;;;10067632;28;20045;-63
2023/03/07 17:03:41;;;;;;;5.47;2.92;;;;;;;;;;10062151;28;20048;-63
2023/03/07 17:08:35;;;;;;;5.32;2.75;;;;;;;;;;10067690;28;20060;-63
2023/03/07 17:13:28;;;;;;;8.85;3.97;;;;;;;;;;10067571;28;20099;-63
2023/03/07 17:18:21;;;;;;;9.05;4.13;;;;;;;;;;10067374;28;20053;-63
2023/03/07 17:23:15;;;;;;;6.65;4.13;;;;;;;;;;10067206;28;20044;-64
2023/03/07 17:28:12;;;;;;;7.82;4.53;;;;;;;;;;10060179;28;20079;-64
2023/03/07 17:33:05;;;;;;;5.13;3.55;;;;;;;;;;10064652;28;20083;-65
2023/03/07 17:37:58;;;;;;;7.63;6.50;;;;;;;;;;10061546;28;20497;-64
2023/03/07 17:42:53;;;;;;;4.28;3.50;;;;;;;;;;10060847;28;20485;-63
2023/03/07 17:47:50;;;;;;;5.05;3.75;;;;;;;;;;10064323;28;20470;-64
2023/03/07 17:52:43;;;;;;;8.05;4.28;;;;;;;;;;10059923;28;20041;-65
2023/03/07 17:57:37;;;;;;;15.43;9.30;;;;;;;;;;10060940;28;20069;-65
2023/03/07 18:02:30;;;;;;;8.90;6.28;;;;;;;;;;10057320;28;20059;-65
2023/03/07 18:07:24;;;;;;;5.97;3.58;;;;;;;;;;10058985;28;20049;-64
2023/03/07 18:12:17;;;;;;;7.05;3.72;;;;;;;;;;10050344;28;20045;-64
2023/03/07 18:17:10;;;;;;;4.82;4.05;;;;;;;;;;10052016;28;20049;-65
2023/03/07 18:22:03;;;;;;;12.43;7.30;;;;;;;;;;10056520;28;20053;-64
2023/03/07 18:27:01;;;;;;;5.38;4.15;;;;;;;;;;10048577;28;20073;-64
2023/03/07 18:31:54;;;;;;;7.28;4.75;;;;;;;;;;10060747;28;20106;-64
2023/03/07 18:36:50;;;;;;;12.55;5.97;;;;;;;;;;10064824;28;20057;-64
2023/03/07 18:41:42;;;;;;;14.95;9.35;;;;;;;;;;10064623;28;20045;-64
2023/03/07 18:46:36;;;;;;;9.27;8.30;;;;;;;;;;10064439;28;20378;-65
2023/03/07 18:51:28;;;;;;;6.00;4.50;;;;;;;;;;10072619;28;20535;-66
2023/03/07 18:56:21;;;;;;;12.32;7.35;;;;;;;;;;10069468;28;20045;-66
2023/03/07 19:01:25;;;;;;;15.85;9.27;;;;;;;;;;10065336;28;20064;-67
2023/03/07 19:06:21;;;;;;;15.25;9.30;;;;;;;;;;10072841;28;20477;-66
2023/03/07 19:11:14;;;;;;;13.73;8.85;;;;;;;;;;10072258;28;20504;-67
2023/03/07 19:16:12;;;;;;;7.57;6.30;;;;;;;;;;10072042;28;20056;-68
2023/03/07 19:21:07;;;;;;;17.92;7.60;;;;;;;;;;10071867;28;20056;-66
2023/03/07 19:26:04;;;;;;;21.10;10.60;;;;;;;;;;10070155;28;20493;-69
2023/03/07 19:30:57;;;;;;;13.32;6.55;;;;;;;;;;10071595;28;20041;-68
2023/03/07 19:36:11;;;;;;;9.57;7.38;;;;;;;;;;10069701;28;20056;-66
2023/03/07 19:41:05;;;;;;;11.27;6.90;;;;;;;;;;10075371;28;20051;-65
2023/03/07 19:45:58;;;;;;;7.53;3.90;;;;;;;;;;10069725;28;20083;-66
2023/03/07 19:50:53;;;;;;;5.55;4.00;;;;;;;;;;10063703;28;20054;-68
2023/03/07 19:55:46;;;;;;;8.75;4.78;;;;;;;;;;10059665;28;20065;-68
2023/03/07 20:00:42;;;;;;;6.85;4.45;;;;;;;;;;10058126;28;20058;-67
2023/03/07 20:05:40;;;;;;;7.93;5.15;;;;;;;;;;10046044;28;20045;-65
2023/03/07 20:10:32;;;;;;;10.23;4.60;;;;;;;;;;10055603;28;20064;-66
2023/03/07 20:15:27;;;;;;;9.18;4.53;;;;;;;;;;10057146;28;20535;-65
2023/03/07 20:20:21;;;;;;;10.70;5.53;;;;;;;;;;10052509;28;20057;-66
2023/03/07 20:25:16;;;;;;;9.18;5.00;;;;;;;;;;10063263;28;20038;-65
2023/03/07 20:30:11;;;;;;;9.07;4.95;;;;;;;;;;10060225;28;20092;-65
2023/03/07 20:35:05;;;;;;;11.05;7.10;;;;;;;;;;10058889;28;20073;-65
2023/03/07 20:40:00;;;;;;;15.25;9.00;;;;;;;;;;10053233;28;20057;-66
2023/03/07 20:44:56;;;;;;;10.23;7.40;;;;;;;;;;10060703;28;20523;-65
2023/03/07 20:49:50;;;;;;;11.10;7.68;;;;;;;;;;10058219;28;20111;-64
2023/03/07 20:54:43;;;;;;;9.60;6.28;;;;;;;;;;10063221;28;20053;-66
2023/03/07 20:59:36;;;;;;;7.15;5.55;;;;;;;;;;10054535;28;20055;-66
2023/03/07 21:04:29;;;;;;;9.57;7.57;;;;;;;;;;10057242;28;20049;-65
2023/03/07 21:09:22;;;;;;;9.07;7.82;;;;;;;;;;10049211;28;20049;-65
2023/03/07 21:14:17;;;;;;;11.63;8.40;;;;;;;;;;10063368;28;20649;-64
2023/03/07 21:19:10;;;;;;;15.52;11.00;;;;;;;;;;10054871;28;20085;-65
2023/03/07 21:24:05;;;;;;;12.50;8.85;;;;;;;;;;10053330;28;20060;-63
2023/03/07 21:29:02;;;;;;;15.70;13.55;;;;;;;;;;10062608;28;20152;-64
2023/03/07 21:33:59;;;;;;;18.58;15.48;;;;;;;;;;10059353;28;20053;-65
2023/03/07 21:38:54;;;;;;;17.90;15.07;;;;;;;;;;10055909;28;20045;-65
2023/03/07 21:43:48;;;;;;;18.38;16.48;;;;;;;;;;10062409;28;20052;-65
2023/03/07 21:48:42;;;;;;;22.15;17.73;;;;;;;;;;10059766;28;20084;-64
2023/03/07 21:53:35;;;;;;;14.13;11.27;;;;;;;;;;10049957;28;20054;-65
2023/03/07 21:58:29;;;;;;;14.70;9.43;;;;;;;;;;10046506;28;20060;-65
2023/03/07 22:03:26;;;;;;;16.23;10.13;;;;;;;;;;10055061;28;20124;-65
2023/03/07 22:08:20;;;;;;;14.00;9.73;;;;;;;;;;10062025;28;20044;-65
2023/03/07 22:13:13;;;;;;;24.88;12.35;;;;;;;;;;10057538;28;20049;-65
2023/03/07 22:18:06;;;;;;;15.65;10.43;;;;;;;;;;10057042;28;20053;-65
2023/03/07 22:22:59;;;;;;;15.23;10.70;;;;;;;;;;10057979;28;20539;-66
2023/03/07 22:27:53;;;;;;;12.60;10.20;;;;;;;;;;10064036;28;20049;-66
2023/03/07 22:32:47;;;;;;;12.45;9.77;;;;;;;;;;10065106;28;20057;-66
2023/03/07 22:37:40;;;;;;;18.33;10.30;;;;;;;;;;10065340;28;20045;-65
2023/03/07 22:42:34;;;;;;;19.70;10.80;;;;;;;;;;10063895;28;20116;-66
2023/03/07 22:47:29;;;;;;;19.00;10.73;;;;;;;;;;10064766;28;20056;-65
2023/03/07 22:52:24;;;;;;;20.73;12.65;;;;;;;;;;10064382;28;20099;-66
2023/03/07 22:57:16;;;;;;;59.97;45.83;;;;;;;;;;10052733;28;20465;-66
2023/03/07 23:02:09;;;;;;;24.58;20.83;;;;;;;;;;10063516;28;20496;-66
2023/03/07 23:07:02;;;;;;;17.95;11.77;;;;;;;;;;10064662;28;20058;-65
2023/03/07 23:11:56;;;;;;;19.95;12.38;;;;;;;;;;10064346;28;20073;-66
2023/03/07 23:16:50;;;;;;;14.98;11.52;;;;;;;;;;10065713;28;20076;-66
2023/03/07 23:21:44;;;;;;;17.80;10.75;;;;;;;;;;10064188;28;20049;-65
2023/03/07 23:26:38;;;;;;;16.92;9.55;;;;;;;;;;10064003;28;20519;-66
2023/03/07 23:31:37;;;;;;;11.80;9.40;;;;;;;;;;10063567;28;20053;-66
2023/03/07 23:36:31;;;;;;;16.87;10.30;;;;;;;;;;10065640;28;20144;-66
2023/03/07 23:41:24;;;;;;;18.67;10.48;;;;;;;;;;10074371;28;20065;-66
2023/03/07 23:46:18;;;;;;;18.40;11.07;;;;;;;;;;10070877;28;20045;-66
2023/03/07 23:51:12;;;;;;;15.85;10.57;;;;;;;;;;10070076;28;20053;-66
2023/03/07 23:56:06;;;;;;;16.58;10.10;;;;;;;;;;10070582;28;20045;-66
